createdAt,value
2019-04-14T00:02:01.035Z,94.10
2019-04-14T00:04:33.381Z,93.90
2019-04-14T00:07:01.507Z,93.50
2019-04-14T00:09:27.410Z,93.50
2019-04-14T00:11:54.808Z,94.20
2019-04-14T00:14:21.319Z,93.80
2019-04-14T00:16:49.017Z,94.20
2019-04-14T00:19:15.193Z,94.40
2019-04-14T00:21:43.212Z,94.70
2019-04-14T00:24:09.479Z,94.80
2019-04-14T00:26:36.030Z,94.10
2019-04-14T00:29:03.141Z,94.80
2019-04-14T00:31:30.722Z,94.10
2019-04-14T00:34:00.704Z,93.30
2019-04-14T00:36:32.649Z,93.10
2019-04-14T00:38:59.505Z,93.00
2019-04-14T00:41:43.884Z,93.10
2019-04-14T00:44:10.341Z,93.30
2019-04-14T00:46:42.988Z,93.60
2019-04-14T00:49:09.381Z,93.90
2019-04-14T00:51:38.266Z,93.90
2019-04-14T00:54:04.365Z,93.60
2019-04-14T00:56:30.162Z,94.00
2019-04-14T00:58:58.168Z,93.70
2019-04-14T01:01:24.362Z,93.70
2019-04-14T01:03:50.958Z,93.60
2019-04-14T01:06:18.596Z,93.60
2019-04-14T01:08:45.116Z,93.50
2019-04-14T01:11:12.040Z,93.50
2019-04-14T01:13:39.752Z,93.40
2019-04-14T01:16:11.998Z,92.40
2019-04-14T01:18:33.987Z,93.10
2019-04-14T01:21:00.270Z,93.40
2019-04-14T01:23:26.791Z,93.10
2019-04-14T01:25:54.708Z,93.20
2019-04-14T01:28:22.215Z,93.50
2019-04-14T01:30:48.595Z,93.50
2019-04-14T01:33:16.238Z,93.60
2019-04-14T01:35:42.476Z,94.40
2019-04-14T01:38:10.306Z,94.20
2019-04-14T01:40:36.620Z,94.70
2019-04-14T01:43:03.810Z,94.70
2019-04-14T01:45:31.651Z,94.60
2019-04-14T01:47:57.564Z,94.60
2019-04-14T01:50:33.098Z,94.30
2019-04-14T01:53:07.603Z,94.40
2019-04-14T01:55:42.405Z,94.20
2019-04-14T01:58:14.269Z,94.00
2019-04-14T02:00:51.269Z,94.50
2019-04-14T02:03:17.138Z,95.20
2019-04-14T02:05:45.233Z,95.70
2019-04-14T02:08:11.187Z,95.20
2019-04-14T02:10:39.220Z,95.00
2019-04-14T02:13:05.444Z,94.70
2019-04-14T02:15:33.059Z,94.50
2019-04-14T02:17:59.308Z,94.10
2019-04-14T02:20:27.254Z,94.20
2019-04-14T02:22:53.347Z,93.90
2019-04-14T02:25:21.008Z,94.20
2019-04-14T02:27:47.269Z,93.90
2019-04-14T02:30:17.986Z,93.70
2019-04-14T02:33:11.059Z,93.70
2019-04-14T02:35:40.731Z,93.80
2019-04-14T02:38:12.263Z,93.40
2019-04-14T02:40:43.982Z,93.40
2019-04-14T02:43:17.648Z,93.30
2019-04-14T02:45:31.740Z,94.40
2019-04-14T02:50:11.030Z,93.90
2019-04-14T02:52:47.210Z,93.90
2019-04-14T02:55:05.278Z,93.60
2019-04-14T03:04:57.141Z,93.70
2019-04-14T03:07:36.269Z,94.00
2019-04-14T03:09:46.607Z,93.70
2019-04-14T03:12:24.449Z,93.70
2019-04-14T03:14:47.441Z,93.30
2019-04-14T03:20:11.469Z,93.50
2019-04-14T03:22:35.203Z,93.50
2019-04-14T03:24:42.036Z,92.90
2019-04-14T03:27:55.109Z,93.60
2019-04-14T03:30:45.591Z,93.60
2019-04-14T03:40:08.485Z,93.40
2019-04-14T03:45:07.840Z,94.20
2019-04-14T03:47:25.689Z,94.30
2019-04-14T03:50:00.336Z,93.90
2019-04-14T03:52:21.803Z,93.70
2019-04-14T03:54:45.492Z,93.40
2019-04-14T03:56:53.379Z,93.20
2019-04-14T03:59:19.646Z,93.00
2019-04-14T04:01:45.948Z,93.20
2019-04-14T04:04:13.941Z,93.20
2019-04-14T04:06:39.986Z,93.00
2019-04-14T04:09:06.812Z,93.00
2019-04-14T04:11:34.457Z,93.50
2019-04-14T04:14:03.139Z,93.40
2019-04-14T04:16:41.822Z,93.20
2019-04-14T04:19:15.487Z,93.20
2019-04-14T04:21:58.032Z,93.20
2019-04-14T04:24:47.498Z,93.20
2019-04-14T04:27:33.112Z,93.10
2019-04-14T04:30:05.972Z,93.20
2019-04-14T04:32:41.276Z,93.20
2019-04-14T04:35:13.147Z,93.20
2019-04-14T04:37:52.055Z,93.10
2019-04-14T04:40:22.347Z,93.60
2019-04-14T04:42:49.063Z,93.10
2019-04-14T04:45:16.997Z,93.40
2019-04-14T04:47:42.947Z,93.70
2019-04-14T04:50:10.759Z,93.60
2019-04-14T04:52:36.797Z,94.20
2019-04-14T04:55:04.594Z,93.60
2019-04-14T04:57:30.721Z,93.40
2019-04-14T04:59:58.116Z,93.60
2019-04-14T05:02:24.581Z,94.00
2019-04-14T05:04:52.577Z,94.00
2019-04-14T05:07:18.772Z,93.50
2019-04-14T05:09:51.349Z,93.40
2019-04-14T05:12:24.687Z,93.20
2019-04-14T05:15:03.794Z,93.20
2019-04-14T05:17:30.525Z,93.10
2019-04-14T05:19:58.428Z,93.30
2019-04-14T05:22:24.751Z,93.10
2019-04-14T05:24:51.321Z,93.20
2019-04-14T05:27:18.888Z,93.20
2019-04-14T05:29:45.187Z,93.30
2019-04-14T05:32:13.006Z,93.30
2019-04-14T05:34:39.045Z,93.10
2019-04-14T05:37:07.108Z,93.00
2019-04-14T05:39:32.971Z,93.10
2019-04-14T05:42:06.594Z,93.30
2019-04-14T05:44:27.547Z,93.70
2019-04-14T05:46:53.779Z,94.00
2019-04-14T05:49:31.734Z,93.90
2019-04-14T05:51:48.134Z,94.30
2019-04-14T05:54:14.604Z,93.80
2019-04-14T05:56:42.513Z,94.00
2019-04-14T05:59:08.883Z,93.30
2019-04-14T06:01:36.501Z,92.70
2019-04-14T06:04:02.522Z,93.00
2019-04-14T06:06:29.271Z,92.80
2019-04-14T06:08:56.187Z,93.00
2019-04-14T06:11:23.108Z,93.40
2019-04-14T06:13:50.036Z,93.30
2019-04-14T06:16:17.135Z,92.80
2019-04-14T06:18:44.051Z,93.10
2019-04-14T06:21:10.991Z,92.80
2019-04-14T06:23:37.921Z,92.60
2019-04-14T06:26:04.841Z,92.30
2019-04-14T06:28:31.784Z,91.90
2019-04-14T06:31:20.171Z,91.30
2019-04-14T06:33:56.721Z,91.40
2019-04-14T06:36:29.417Z,91.20
2019-04-14T06:39:02.279Z,91.00
2019-04-14T06:41:29.193Z,91.70
2019-04-14T06:43:56.133Z,91.80
2019-04-14T06:46:23.077Z,91.20
2019-04-14T06:48:50.001Z,91.10
2019-04-14T06:51:16.953Z,91.10
2019-04-14T06:53:43.893Z,91.40
2019-04-14T06:56:10.828Z,91.70
2019-04-14T06:58:37.740Z,91.70
2019-04-14T07:01:04.710Z,91.70
2019-04-14T07:03:31.634Z,91.10
2019-04-14T07:06:00.159Z,90.90
2019-04-14T07:08:25.501Z,91.20
2019-04-14T07:10:52.425Z,91.60
2019-04-14T07:13:19.729Z,91.00
2019-04-14T07:15:46.271Z,90.70
2019-04-14T07:18:14.350Z,90.70
2019-04-14T07:20:41.255Z,90.70
2019-04-14T07:23:08.196Z,90.00
2019-04-14T07:25:35.132Z,90.40
2019-04-14T07:28:02.046Z,90.10
2019-04-14T07:30:38.619Z,90.00
2019-04-14T07:33:19.323Z,89.50
2019-04-14T07:35:55.264Z,89.70
2019-04-14T07:38:27.515Z,89.80
2019-04-14T07:41:05.954Z,89.50
2019-04-14T07:43:38.824Z,87.90
2019-04-14T07:46:10.708Z,86.30
2019-04-14T07:48:58.135Z,87.80
2019-04-14T07:51:33.592Z,86.20
2019-04-14T07:54:10.127Z,87.70
2019-04-14T07:56:48.155Z,85.30
2019-04-14T07:59:21.547Z,85.60
2019-04-14T08:01:57.196Z,86.30
2019-04-14T08:04:27.926Z,85.60
2019-04-14T08:06:56.950Z,84.90
2019-04-14T08:09:23.905Z,85.00
2019-04-14T08:11:50.819Z,83.00
2019-04-14T08:14:17.739Z,82.40
2019-04-14T08:16:44.676Z,81.10
2019-04-14T08:19:11.827Z,83.00
2019-04-14T08:21:38.765Z,82.50
2019-04-14T08:24:05.700Z,78.20
2019-04-14T08:26:32.616Z,80.80
2019-04-14T08:28:59.579Z,80.10
2019-04-14T08:31:26.508Z,78.40
2019-04-14T08:33:53.428Z,78.70
2019-04-14T08:36:20.372Z,75.60
2019-04-14T08:38:47.319Z,73.50
2019-04-14T08:41:14.270Z,70.50
2019-04-14T08:43:45.741Z,72.80
2019-04-14T08:46:19.977Z,70.80
2019-04-14T08:48:50.280Z,69.70
2019-04-14T08:51:22.569Z,68.50
2019-04-14T08:53:57.090Z,64.70
2019-04-14T08:56:30.363Z,69.20
2019-04-14T08:59:18.740Z,67.90
2019-04-14T09:02:02.920Z,69.50
2019-04-14T09:04:35.640Z,68.40
2019-04-14T09:07:14.027Z,69.60
2019-04-14T09:09:44.156Z,71.10
2019-04-14T09:12:16.583Z,69.60
2019-04-14T09:14:55.950Z,69.90
2019-04-14T09:17:10.455Z,69.60
2019-04-14T09:19:38.137Z,69.20
2019-04-14T09:22:05.061Z,67.60
2019-04-14T09:24:31.975Z,67.10
2019-04-14T09:26:59.282Z,67.80
2019-04-14T09:29:26.200Z,68.70
2019-04-14T09:31:53.132Z,69.40
2019-04-14T09:34:20.093Z,66.40
2019-04-14T09:36:47.023Z,67.50
2019-04-14T09:39:13.942Z,65.70
2019-04-14T09:41:40.888Z,64.90
2019-04-14T09:44:08.312Z,65.50
2019-04-14T09:46:35.232Z,61.70
2019-04-14T09:49:02.172Z,64.50
2019-04-14T09:51:29.129Z,63.30
2019-04-14T09:53:56.064Z,61.40
2019-04-14T09:56:23.007Z,59.80
2019-04-14T09:58:49.926Z,59.20
2019-04-14T10:01:16.857Z,59.80
2019-04-14T10:03:43.864Z,60.10
2019-04-14T10:06:10.808Z,58.10
2019-04-14T10:08:37.740Z,58.40
2019-04-14T10:11:04.685Z,56.30
2019-04-14T10:13:31.608Z,55.70
2019-04-14T10:15:58.543Z,56.30
2019-04-14T10:18:25.499Z,54.20
2019-04-14T10:20:53.735Z,53.90
2019-04-14T10:23:20.648Z,54.40
2019-04-14T10:25:47.587Z,55.50
2019-04-14T10:28:14.528Z,56.00
2019-04-14T10:30:41.428Z,57.80
2019-04-14T10:33:08.376Z,58.20
2019-04-14T10:35:35.304Z,57.80
2019-04-14T10:38:02.242Z,59.60
2019-04-14T10:40:29.188Z,57.40
2019-04-14T10:42:56.122Z,56.80
2019-04-14T10:45:23.049Z,58.00
2019-04-14T10:47:50.000Z,58.80
2019-04-14T10:50:29.933Z,59.40
2019-04-14T10:52:43.871Z,58.30
2019-04-14T11:15:52.082Z,56.90
2019-04-14T11:18:19.007Z,55.40
2019-04-14T11:20:45.959Z,54.10
2019-04-14T11:23:14.061Z,54.60
2019-04-14T11:25:40.993Z,54.80
2019-04-14T11:28:07.913Z,55.60
2019-04-14T11:30:34.846Z,55.30
2019-04-14T11:33:07.555Z,55.70
2019-04-14T11:35:39.636Z,55.20
2019-04-14T11:38:14.211Z,55.50
2019-04-14T11:40:46.934Z,57.00
2019-04-14T11:43:13.885Z,56.20
2019-04-14T11:45:40.797Z,54.90
2019-04-14T11:48:07.728Z,55.60
2019-04-14T11:50:34.665Z,54.10
2019-04-14T11:53:01.630Z,55.70
2019-04-14T11:55:28.864Z,54.00
2019-04-14T11:57:55.756Z,54.40
2019-04-14T12:00:39.004Z,53.80
2019-04-14T12:03:26.503Z,53.20
2019-04-14T12:06:03.931Z,54.40
2019-04-14T12:08:36.543Z,53.20
2019-04-14T12:11:03.646Z,51.60
2019-04-14T12:13:30.557Z,52.30
2019-04-14T12:15:57.510Z,53.20
2019-04-14T12:18:24.442Z,53.70
2019-04-14T12:20:51.369Z,53.90
2019-04-14T12:23:18.789Z,52.50
2019-04-14T12:25:45.730Z,50.50
2019-04-14T12:28:13.592Z,51.10
2019-04-14T12:30:39.932Z,51.10
2019-04-14T12:33:06.587Z,50.70
2019-04-14T12:35:33.528Z,49.70
2019-04-14T12:38:00.449Z,49.80
2019-04-14T12:40:27.360Z,50.90
2019-04-14T12:43:04.556Z,49.60
2019-04-14T12:45:37.220Z,49.70
2019-04-14T12:48:19.940Z,49.30
2019-04-14T12:50:51.546Z,49.00
2019-04-14T12:53:18.491Z,47.30
2019-04-14T12:55:45.452Z,47.70
2019-04-14T12:58:13.369Z,48.40
2019-04-14T13:01:00.719Z,48.70
2019-04-14T13:03:28.580Z,49.50
2019-04-14T13:05:55.523Z,49.70
2019-04-14T13:08:22.484Z,48.30
2019-04-14T13:10:49.431Z,50.20
2019-04-14T13:13:16.336Z,50.10
2019-04-14T13:15:43.271Z,46.30
2019-04-14T13:18:10.204Z,48.90
2019-04-14T13:20:37.135Z,46.50
2019-04-14T13:23:04.092Z,49.50
2019-04-14T13:25:32.512Z,48.60
2019-04-14T13:27:59.477Z,49.20
2019-04-14T13:30:29.293Z,47.10
2019-04-14T13:32:56.204Z,47.50
2019-04-14T13:35:23.131Z,47.30
2019-04-14T13:37:50.073Z,47.90
2019-04-14T13:40:16.997Z,44.60
2019-04-14T13:42:43.931Z,45.80
2019-04-14T13:45:10.922Z,48.10
2019-04-14T13:47:38.097Z,46.00
2019-04-14T13:50:05.117Z,47.90
2019-04-14T13:52:32.077Z,45.40
2019-04-14T13:54:59.026Z,45.80
2019-04-14T13:57:25.956Z,46.00
2019-04-14T13:59:52.880Z,45.90
2019-04-14T14:02:19.951Z,45.40
2019-04-14T14:04:46.884Z,46.20
2019-04-14T14:07:13.852Z,45.10
2019-04-14T14:09:40.789Z,46.00
2019-04-14T14:12:31.286Z,47.40
2019-04-14T14:15:11.619Z,47.40
2019-04-14T14:17:46.367Z,47.00
2019-04-14T14:20:21.798Z,47.90
2019-04-14T14:22:59.443Z,48.60
2019-04-14T14:25:29.207Z,48.70
2019-04-14T14:27:56.556Z,48.50
2019-04-14T14:30:23.520Z,49.30
2019-04-14T14:32:50.459Z,50.10
2019-04-14T14:35:17.396Z,50.80
2019-04-14T14:37:44.374Z,50.20
2019-04-14T14:40:11.318Z,50.40
2019-04-14T14:42:38.237Z,50.70
2019-04-14T14:45:29.011Z,50.10
2019-04-14T14:48:05.631Z,49.50
2019-04-14T14:50:40.708Z,50.00
2019-04-14T14:53:12.327Z,50.10
2019-04-14T14:55:34.855Z,51.00
2019-04-14T14:58:01.788Z,50.90
2019-04-14T15:00:31.328Z,50.50
2019-04-14T15:02:58.235Z,50.50
2019-04-14T15:05:25.203Z,50.20
2019-04-14T15:07:52.144Z,49.10
2019-04-14T15:10:19.099Z,49.60
2019-04-14T15:12:46.038Z,50.30
2019-04-14T15:15:13.004Z,50.50
2019-04-14T15:17:39.945Z,50.70
2019-04-14T15:20:06.908Z,50.90
2019-04-14T15:22:33.859Z,50.90
2019-04-14T15:25:00.800Z,50.70
2019-04-14T15:27:27.747Z,49.80
2019-04-14T15:29:54.995Z,49.50
2019-04-14T15:32:21.907Z,49.60
2019-04-14T15:34:48.876Z,50.70
2019-04-14T15:37:15.810Z,51.80
2019-04-14T15:39:42.759Z,50.80
2019-04-14T15:42:09.729Z,49.50
2019-04-14T15:44:36.656Z,49.80
2019-04-14T15:47:03.601Z,49.30
2019-04-14T15:49:30.537Z,50.10
2019-04-14T15:51:57.462Z,49.70
2019-04-14T15:54:25.543Z,48.40
2019-04-14T15:56:58.774Z,50.50
2019-04-14T15:59:35.576Z,50.70
2019-04-14T16:02:09.350Z,50.60
2019-04-14T16:04:41.483Z,50.80
2019-04-14T16:07:19.072Z,52.00
2019-04-14T16:09:58.755Z,51.20
2019-04-14T16:12:45.315Z,51.30
2019-04-14T16:15:24.575Z,51.10
2019-04-14T16:18:02.610Z,50.80
2019-04-14T16:20:32.371Z,51.30
2019-04-14T16:22:59.300Z,52.20
2019-04-14T16:25:38.620Z,51.60
2019-04-14T16:28:14.239Z,51.70
2019-04-14T16:30:48.905Z,51.50
2019-04-14T16:33:20.212Z,51.70
2019-04-14T16:35:47.731Z,50.90
2019-04-14T16:38:14.735Z,51.30
2019-04-14T16:40:41.629Z,51.60
2019-04-14T16:43:08.559Z,52.10
2019-04-14T16:45:35.560Z,53.20
2019-04-14T16:48:02.449Z,54.10
2019-04-14T16:50:29.376Z,54.50
2019-04-14T16:53:02.043Z,54.10
2019-04-14T16:55:48.607Z,54.40
2019-04-14T16:58:19.773Z,53.80
2019-04-14T17:00:50.430Z,54.00
2019-04-14T17:03:17.352Z,54.20
2019-04-14T17:05:44.300Z,54.60
2019-04-14T17:08:11.257Z,55.00
2019-04-14T17:10:38.184Z,55.00
2019-04-14T17:13:05.110Z,55.70
2019-04-14T17:15:41.792Z,56.10
2019-04-14T17:18:16.453Z,56.20
2019-04-14T17:20:49.084Z,56.90
2019-04-14T17:23:35.660Z,56.80
2019-04-14T17:26:08.008Z,56.80
2019-04-14T17:28:41.092Z,57.20
2019-04-14T17:31:19.687Z,57.30
2019-04-14T17:33:56.138Z,57.30
2019-04-14T17:36:30.740Z,57.40
2019-04-14T17:39:17.323Z,57.60
2019-04-14T17:41:58.087Z,57.90
2019-04-14T17:44:37.260Z,58.40
2019-04-14T17:47:11.060Z,58.40
2019-04-14T17:49:46.921Z,58.70
2019-04-14T17:52:19.780Z,59.20
2019-04-14T17:54:55.560Z,59.00
2019-04-14T17:57:34.288Z,58.90
2019-04-14T18:00:12.626Z,59.20
2019-04-14T18:02:49.383Z,59.80
2019-04-14T18:05:26.335Z,60.10
2019-04-14T18:07:56.720Z,60.30
2019-04-14T18:10:30.135Z,60.20
2019-04-14T18:13:08.755Z,61.00
2019-04-14T18:15:41.433Z,61.70
2019-04-14T18:18:33.051Z,62.20
2019-04-14T18:21:03.119Z,62.70
2019-04-14T18:23:30.067Z,63.40
2019-04-14T18:25:57.008Z,64.50
2019-04-14T18:28:30.095Z,64.30
2019-04-14T18:31:03.239Z,64.80
2019-04-14T18:33:41.154Z,65.00
2019-04-14T18:36:17.231Z,65.00
2019-04-14T18:38:59.562Z,65.90
2019-04-14T18:41:36.348Z,66.10
2019-04-14T18:44:26.712Z,66.70
2019-04-14T18:47:04.935Z,66.80
2019-04-14T18:49:43.277Z,67.10
2019-04-14T18:52:16.151Z,66.60
2019-04-14T18:54:54.622Z,66.70
2019-04-14T18:57:28.578Z,67.20
2019-04-14T19:00:02.396Z,67.90
2019-04-14T19:02:29.420Z,67.80
2019-04-14T19:04:56.359Z,67.90
2019-04-14T19:07:23.327Z,68.60
2019-04-14T19:09:50.313Z,69.80
2019-04-14T19:12:22.992Z,68.00
2019-04-14T19:14:52.053Z,70.10
2019-04-14T19:17:27.296Z,70.90
2019-04-14T19:20:01.564Z,71.30
2019-04-14T19:22:21.385Z,70.00
2019-04-14T19:24:48.363Z,71.10
2019-04-14T19:27:15.325Z,71.60
2019-04-14T19:29:42.306Z,71.70
2019-04-14T19:32:09.233Z,72.10
2019-04-14T19:34:36.384Z,72.30
2019-04-14T19:37:03.343Z,72.50
2019-04-14T19:39:30.286Z,72.70
2019-04-14T19:41:57.232Z,72.50
2019-04-14T19:44:24.167Z,72.90
2019-04-14T19:46:51.105Z,73.00
2019-04-14T19:49:18.079Z,73.70
2019-04-14T19:51:45.044Z,73.80
2019-04-14T19:54:11.972Z,73.50
2019-04-14T19:56:38.953Z,74.00
2019-04-14T19:59:05.893Z,75.70
2019-04-14T20:01:32.807Z,74.70
2019-04-14T20:03:59.757Z,75.00
2019-04-14T20:06:26.683Z,76.10
2019-04-14T20:08:53.614Z,76.00
2019-04-14T20:11:20.568Z,76.00
2019-04-14T20:13:47.504Z,77.40
2019-04-14T20:16:35.047Z,76.70
2019-04-14T20:19:11.006Z,76.40
2019-04-14T20:21:44.031Z,76.10
2019-04-14T20:24:17.374Z,76.60
2019-04-14T20:26:54.725Z,76.20
2019-04-14T20:29:27.601Z,77.00
2019-04-14T20:31:57.832Z,77.40
2019-04-14T20:34:24.878Z,77.20
2019-04-14T20:36:53.236Z,77.50
2019-04-14T20:39:20.207Z,78.00
2019-04-14T20:41:47.158Z,78.20
2019-04-14T20:44:14.140Z,78.90
2019-04-14T20:46:41.103Z,79.50
2019-04-14T20:49:08.111Z,79.10
2019-04-14T20:51:35.065Z,78.50
2019-04-14T20:54:02.099Z,79.10
2019-04-14T20:56:30.828Z,79.50
2019-04-14T20:58:57.780Z,77.70
2019-04-14T21:01:25.088Z,80.10
2019-04-14T21:04:12.114Z,79.00
2019-04-14T21:06:49.643Z,78.60
2019-04-14T21:09:21.513Z,80.40
2019-04-14T21:12:08.109Z,78.50
2019-04-14T21:14:44.786Z,78.30
2019-04-14T21:17:24.711Z,79.30
2019-04-14T21:20:02.560Z,78.60
2019-04-14T21:22:35.411Z,78.90
2019-04-14T21:25:10.815Z,78.80
2019-04-14T21:27:51.040Z,78.90
2019-04-14T21:30:27.763Z,79.80
2019-04-14T21:33:01.799Z,80.80
2019-04-14T21:35:36.450Z,80.80
2019-04-14T21:38:25.251Z,80.90
2019-04-14T21:40:55.235Z,80.10
2019-04-14T21:43:22.147Z,80.40
2019-04-14T21:45:49.103Z,80.50
2019-04-14T21:48:16.048Z,80.60
2019-04-14T21:50:42.977Z,78.90
2019-04-14T21:53:10.017Z,80.80
2019-04-14T21:55:36.967Z,80.90
2019-04-14T21:58:13.808Z,80.80
2019-04-14T22:01:27.691Z,80.90
2019-04-14T22:04:01.486Z,81.10
2019-04-14T22:06:32.652Z,81.10
2019-04-14T22:08:59.592Z,81.10
2019-04-14T22:11:26.559Z,79.80
2019-04-14T22:13:53.496Z,81.20
2019-04-14T22:16:20.440Z,81.10
2019-04-14T22:18:47.396Z,83.30
2019-04-14T22:21:14.344Z,81.60
2019-04-14T22:23:41.316Z,81.40
2019-04-14T22:26:08.264Z,82.20
2019-04-14T22:28:35.196Z,82.50
2019-04-14T22:31:02.153Z,82.90
2019-04-14T22:33:29.167Z,83.20
2019-04-14T22:35:56.045Z,83.00
2019-04-14T22:38:23.393Z,83.70
2019-04-14T22:40:50.335Z,83.60
2019-04-14T22:43:17.259Z,84.00
2019-04-14T22:45:44.204Z,84.20
2019-04-14T22:48:11.145Z,83.60
2019-04-14T22:50:38.067Z,83.20
2019-04-14T22:53:05.008Z,83.50
2019-04-14T22:55:32.200Z,83.90
2019-04-14T22:57:59.114Z,83.30
2019-04-14T23:00:48.023Z,84.70
2019-04-14T23:03:21.767Z,84.10
2019-04-14T23:05:57.975Z,84.70
2019-04-14T23:08:35.081Z,84.40
2019-04-14T23:11:11.256Z,84.20
2019-04-14T23:13:44.797Z,83.60
2019-04-14T23:16:19.440Z,84.50
2019-04-14T23:18:53.552Z,84.90
2019-04-14T23:21:28.159Z,85.20
2019-04-14T23:24:15.753Z,84.20
2019-04-14T23:26:52.482Z,85.40
2019-04-14T23:29:09.707Z,85.30
2019-04-14T23:31:36.678Z,85.40
2019-04-14T23:34:03.622Z,85.40
2019-04-14T23:36:30.560Z,85.80
2019-04-14T23:38:58.072Z,86.00
2019-04-14T23:41:25.000Z,86.10
2019-04-14T23:43:51.958Z,86.10
2019-04-14T23:46:18.900Z,85.80
2019-04-14T23:48:45.845Z,86.40
2019-04-14T23:51:12.783Z,87.00
2019-04-14T23:53:39.709Z,86.80
2019-04-14T23:56:06.654Z,86.40
2019-04-14T23:58:33.623Z,86.90
